createdAt,value
2019-01-15T00:02:20.619Z,3.81
2019-01-15T00:04:49.054Z,3.79
2019-01-15T00:07:17.496Z,3.78
2019-01-15T00:09:45.947Z,3.78
2019-01-15T00:12:14.498Z,3.76
2019-01-15T00:14:42.975Z,3.75
2019-01-15T00:17:11.510Z,3.74
2019-01-15T00:19:40.003Z,3.72
2019-01-15T00:22:08.628Z,3.70
2019-01-15T00:24:37.038Z,3.68
2019-01-15T00:27:05.492Z,3.65
2019-01-15T00:29:33.952Z,3.64
2019-01-15T00:32:02.455Z,3.64
2019-01-15T00:34:30.944Z,3.64
2019-01-15T00:36:59.620Z,3.64
2019-01-15T00:39:28.056Z,3.63
2019-01-15T00:41:56.510Z,3.62
2019-01-15T00:44:24.934Z,3.62
2019-01-15T00:46:53.345Z,3.60
2019-01-15T00:49:21.808Z,3.58
2019-01-15T00:51:50.242Z,3.57
2019-01-15T00:54:18.681Z,3.56
2019-01-15T00:56:47.167Z,3.56
2019-01-15T00:59:15.611Z,3.53
2019-01-15T01:01:44.261Z,3.53
2019-01-15T01:04:12.700Z,3.51
2019-01-15T01:06:41.130Z,3.51
2019-01-15T01:09:11.141Z,3.49
2019-01-15T01:11:39.995Z,3.48
2019-01-15T01:14:08.578Z,3.47
2019-01-15T01:16:37.010Z,3.45
2019-01-15T01:19:05.571Z,3.46
2019-01-15T01:21:34.070Z,3.44
2019-01-15T01:24:02.491Z,3.43
2019-01-15T01:26:31.001Z,3.44
2019-01-15T01:28:59.492Z,3.44
2019-01-15T01:31:28.011Z,3.44
2019-01-15T01:33:56.414Z,3.43
2019-01-15T01:36:24.867Z,3.43
2019-01-15T01:38:53.289Z,3.41
2019-01-15T01:41:21.746Z,3.43
2019-01-15T01:43:50.333Z,3.45
2019-01-15T01:46:18.843Z,3.50
2019-01-15T01:48:47.275Z,3.51
2019-01-15T01:51:16.199Z,3.55
2019-01-15T01:53:47.420Z,3.59
2019-01-15T01:56:15.867Z,3.65
2019-01-15T01:58:44.303Z,3.66
2019-01-15T02:01:12.813Z,3.70
2019-01-15T02:03:41.256Z,3.74
2019-01-15T02:06:09.756Z,3.78
2019-01-15T02:08:38.275Z,3.82
2019-01-15T02:11:06.732Z,3.82
2019-01-15T02:13:35.156Z,3.82
2019-01-15T02:16:03.655Z,3.87
2019-01-15T02:18:32.103Z,3.90
2019-01-15T02:21:00.589Z,3.92
2019-01-15T02:23:29.035Z,3.95
2019-01-15T02:25:57.474Z,3.97
2019-01-15T02:28:25.915Z,3.96
2019-01-15T02:30:54.890Z,3.96
2019-01-15T02:33:25.039Z,3.95
2019-01-15T02:35:53.458Z,3.97
2019-01-15T02:38:21.940Z,3.98
2019-01-15T02:40:50.363Z,4.01
2019-01-15T02:43:18.837Z,4.06
2019-01-15T02:45:47.256Z,4.12
2019-01-15T02:48:15.707Z,4.14
2019-01-15T02:50:44.142Z,4.16
2019-01-15T02:53:12.644Z,4.17
2019-01-15T02:55:41.068Z,4.16
2019-01-15T02:58:09.567Z,4.18
2019-01-15T03:00:38.041Z,4.23
2019-01-15T03:03:06.715Z,4.25
2019-01-15T03:05:35.127Z,4.23
2019-01-15T03:08:03.727Z,4.22
2019-01-15T03:10:32.207Z,4.19
2019-01-15T03:13:00.798Z,4.17
2019-01-15T03:15:29.210Z,4.17
2019-01-15T03:17:57.633Z,4.16
2019-01-15T03:20:26.144Z,4.14
2019-01-15T03:22:54.598Z,4.11
2019-01-15T03:25:23.115Z,4.11
2019-01-15T03:27:51.614Z,4.09
2019-01-15T03:30:22.245Z,4.11
2019-01-15T03:32:50.792Z,4.14
2019-01-15T03:35:19.395Z,4.18
2019-01-15T03:37:47.814Z,4.20
2019-01-15T03:40:21.994Z,4.22
2019-01-15T03:42:50.544Z,4.21
2019-01-15T03:45:19.014Z,4.20
2019-01-15T03:47:47.420Z,4.24
2019-01-15T03:50:16.092Z,4.28
2019-01-15T03:52:44.574Z,4.31
2019-01-15T03:55:14.743Z,4.30
2019-01-15T03:57:43.803Z,4.27
2019-01-15T04:00:15.335Z,4.24
2019-01-15T04:02:44.500Z,4.21
2019-01-15T04:05:13.764Z,4.18
2019-01-15T04:07:43.136Z,4.17
2019-01-15T04:10:12.091Z,4.15
2019-01-15T04:12:40.603Z,4.14
2019-01-15T04:15:13.289Z,4.13
2019-01-15T04:17:42.163Z,4.11
2019-01-15T04:20:17.659Z,4.11
2019-01-15T04:22:46.602Z,4.11
2019-01-15T04:25:15.890Z,4.11
2019-01-15T04:27:44.492Z,4.11
2019-01-15T04:30:15.788Z,4.11
2019-01-15T04:32:44.366Z,4.11
2019-01-15T04:35:13.027Z,4.09
2019-01-15T04:37:41.484Z,4.09
2019-01-15T04:40:13.157Z,4.08
2019-01-15T04:42:41.612Z,4.08
2019-01-15T04:45:13.055Z,4.07
2019-01-15T04:47:41.563Z,4.07
2019-01-15T04:50:10.995Z,4.07
2019-01-15T04:52:41.277Z,4.09
2019-01-15T04:55:11.507Z,4.13
2019-01-15T04:57:40.025Z,4.16
2019-01-15T05:00:14.383Z,4.16
2019-01-15T05:02:43.128Z,4.18
2019-01-15T05:05:13.684Z,4.19
2019-01-15T05:07:42.192Z,4.17
2019-01-15T05:10:15.381Z,4.17
2019-01-15T05:12:43.829Z,4.18
2019-01-15T05:15:14.479Z,4.17
2019-01-15T05:17:43.004Z,4.16
2019-01-15T05:20:17.016Z,4.15
2019-01-15T05:22:45.513Z,4.16
2019-01-15T05:25:19.151Z,4.18
2019-01-15T05:27:47.616Z,4.23
2019-01-15T05:30:23.959Z,4.26
2019-01-15T05:32:52.712Z,4.29
2019-01-15T05:35:21.234Z,4.32
2019-01-15T05:37:49.665Z,4.38
2019-01-15T05:40:18.358Z,4.42
2019-01-15T05:42:46.845Z,4.45
2019-01-15T05:45:18.963Z,4.49
2019-01-15T05:47:48.261Z,4.52
2019-01-15T05:50:18.417Z,4.54
2019-01-15T05:52:46.842Z,4.58
2019-01-15T05:55:15.463Z,4.60
2019-01-15T05:57:43.909Z,4.61
2019-01-15T06:00:17.048Z,4.62
2019-01-15T06:02:45.433Z,4.63
2019-01-15T06:05:14.519Z,4.64
2019-01-15T06:07:42.997Z,4.67
2019-01-15T06:10:13.840Z,4.71
2019-01-15T06:12:42.423Z,4.73
2019-01-15T06:15:13.339Z,4.74
2019-01-15T06:17:41.774Z,4.74
2019-01-15T06:20:13.281Z,4.76
2019-01-15T06:22:41.796Z,4.79
2019-01-15T06:25:11.056Z,4.82
2019-01-15T06:27:39.565Z,4.86
2019-01-15T06:30:13.731Z,4.89
2019-01-15T06:32:42.355Z,4.91
2019-01-15T06:35:11.104Z,4.92
2019-01-15T06:37:39.616Z,4.92
2019-01-15T06:40:20.405Z,4.94
2019-01-15T06:42:49.187Z,4.94
2019-01-15T06:45:23.490Z,4.92
2019-01-15T06:47:52.006Z,4.92
2019-01-15T06:50:20.575Z,4.95
2019-01-15T06:52:49.120Z,4.97
2019-01-15T06:55:19.986Z,5.00
2019-01-15T06:57:48.499Z,5.01
2019-01-15T07:00:28.570Z,5.03
2019-01-15T07:02:57.557Z,5.04
2019-01-15T07:05:26.069Z,5.03
2019-01-15T07:07:54.592Z,5.05
2019-01-15T07:10:31.767Z,5.06
2019-01-15T07:13:00.334Z,5.07
2019-01-15T07:15:28.821Z,5.09
2019-01-15T07:17:57.335Z,5.10
2019-01-15T07:20:26.307Z,5.11
2019-01-15T07:22:54.844Z,5.15
2019-01-15T07:25:26.245Z,5.18
2019-01-15T07:27:54.685Z,5.19
2019-01-15T07:30:26.176Z,5.19
2019-01-15T07:32:55.418Z,5.23
2019-01-15T07:35:24.050Z,5.23
2019-01-15T07:37:52.610Z,5.26
2019-01-15T07:40:21.130Z,5.28
2019-01-15T07:42:49.552Z,5.31
2019-01-15T07:45:18.437Z,5.31
2019-01-15T07:47:46.927Z,5.30
2019-01-15T07:50:20.369Z,5.32
2019-01-15T07:52:49.635Z,5.32
2019-01-15T07:55:19.997Z,5.34
2019-01-15T07:57:48.418Z,5.36
2019-01-15T08:00:26.632Z,5.38
2019-01-15T08:02:55.503Z,5.39
2019-01-15T08:05:28.405Z,5.38
2019-01-15T08:07:57.071Z,5.35
2019-01-15T08:10:25.598Z,5.33
2019-01-15T08:12:54.153Z,5.31
2019-01-15T08:15:27.738Z,5.32
2019-01-15T08:17:56.311Z,5.36
2019-01-15T08:20:24.883Z,5.39
2019-01-15T08:22:53.463Z,5.43
2019-01-15T08:25:21.958Z,5.47
2019-01-15T08:27:50.509Z,5.52
2019-01-15T08:30:27.474Z,5.54
2019-01-15T08:32:56.074Z,5.55
2019-01-15T08:35:24.842Z,5.57
2019-01-15T08:37:53.286Z,5.58
2019-01-15T08:40:21.842Z,5.61
2019-01-15T08:42:50.268Z,5.62
2019-01-15T08:45:19.332Z,5.65
2019-01-15T08:47:50.262Z,5.68
2019-01-15T08:50:21.236Z,5.69
2019-01-15T08:52:50.112Z,5.74
2019-01-15T08:55:18.542Z,5.77
2019-01-15T08:57:47.005Z,5.80
2019-01-15T09:00:15.860Z,5.84
2019-01-15T09:02:44.378Z,5.89
2019-01-15T09:05:13.155Z,5.90
2019-01-15T09:07:41.583Z,5.95
2019-01-15T09:10:15.295Z,5.99
2019-01-15T09:12:44.046Z,6.01
2019-01-15T09:15:20.979Z,6.04
2019-01-15T09:17:49.494Z,6.09
2019-01-15T09:20:19.907Z,6.13
2019-01-15T09:22:48.472Z,6.18
2019-01-15T09:25:17.065Z,6.21
2019-01-15T09:27:45.607Z,6.24
2019-01-15T09:30:16.385Z,6.26
2019-01-15T09:32:44.967Z,6.32
2019-01-15T09:35:13.645Z,6.39
2019-01-15T09:37:42.612Z,6.43
2019-01-15T09:40:13.967Z,6.47
2019-01-15T09:42:42.460Z,6.51
2019-01-15T09:45:14.123Z,6.54
2019-01-15T09:47:44.357Z,6.56
2019-01-15T09:50:13.433Z,6.62
2019-01-15T09:52:42.374Z,6.66
2019-01-15T09:55:10.889Z,6.70
2019-01-15T09:57:39.404Z,6.72
2019-01-15T10:00:16.503Z,6.80
2019-01-15T10:02:44.946Z,6.89
2019-01-15T10:05:13.514Z,6.93
2019-01-15T10:07:41.991Z,6.94
2019-01-15T10:10:13.320Z,6.94
2019-01-15T10:12:41.913Z,6.97
2019-01-15T10:15:21.759Z,7.02
2019-01-15T10:17:50.387Z,7.05
2019-01-15T10:20:19.459Z,7.11
2019-01-15T10:22:48.961Z,7.17
2019-01-15T10:25:27.993Z,7.23
2019-01-15T10:27:57.634Z,7.30
2019-01-15T10:30:39.882Z,7.35
2019-01-15T10:33:14.266Z,7.39
2019-01-15T10:35:54.694Z,7.42
2019-01-15T10:38:28.935Z,7.44
2019-01-15T10:40:58.094Z,7.47
2019-01-15T10:43:27.470Z,7.47
2019-01-15T10:45:56.069Z,7.47
2019-01-15T10:48:24.849Z,7.47
2019-01-15T10:50:53.526Z,7.51
2019-01-15T10:53:22.152Z,7.52
2019-01-15T10:55:50.604Z,7.57
2019-01-15T10:58:19.081Z,7.61
2019-01-15T11:00:47.598Z,7.65
2019-01-15T11:03:16.024Z,7.69
2019-01-15T11:05:44.790Z,7.72
2019-01-15T11:08:13.279Z,7.74
2019-01-15T11:10:41.769Z,7.72
2019-01-15T11:13:10.335Z,7.74
2019-01-15T11:15:43.095Z,7.74
2019-01-15T11:18:09.123Z,7.75
2019-01-15T11:20:37.718Z,7.78
2019-01-15T11:23:06.295Z,7.83
2019-01-15T11:25:34.820Z,7.85
2019-01-15T11:28:04.914Z,7.90
2019-01-15T11:30:33.415Z,7.91
2019-01-15T11:33:01.841Z,7.95
2019-01-15T11:35:30.566Z,7.97
2019-01-15T11:37:58.983Z,7.96
2019-01-15T11:40:27.417Z,7.96
2019-01-15T11:42:55.911Z,7.97
2019-01-15T11:45:24.604Z,7.97
2019-01-15T11:47:53.363Z,7.98
2019-01-15T11:50:23.383Z,8.00
2019-01-15T11:52:51.972Z,8.02
2019-01-15T11:55:21.365Z,8.07
2019-01-15T11:57:51.015Z,8.10
2019-01-15T12:00:38.630Z,8.16
2019-01-15T12:03:11.812Z,8.19
2019-01-15T12:05:41.996Z,8.22
2019-01-15T12:08:28.159Z,8.22
2019-01-15T12:11:00.662Z,8.23
2019-01-15T12:13:42.464Z,8.21
2019-01-15T12:16:12.545Z,8.18
2019-01-15T12:18:51.364Z,8.17
2019-01-15T12:21:21.480Z,8.17
2019-01-15T12:24:07.475Z,8.19
2019-01-15T12:26:37.699Z,8.24
2019-01-15T12:29:24.389Z,8.30
2019-01-15T12:31:54.487Z,8.33
2019-01-15T12:34:40.771Z,8.34
2019-01-15T12:37:26.844Z,8.32
2019-01-15T12:40:06.853Z,8.34
2019-01-15T12:42:53.200Z,8.34
2019-01-15T12:45:32.734Z,8.31
2019-01-15T12:48:19.559Z,8.29
2019-01-15T12:50:49.850Z,8.27
2019-01-15T12:53:36.587Z,8.28
2019-01-15T12:56:19.289Z,8.30
2019-01-15T12:58:49.383Z,8.36
2019-01-15T13:01:35.913Z,8.37
2019-01-15T13:04:21.195Z,8.35
2019-01-15T13:06:51.333Z,8.34
2019-01-15T13:09:24.069Z,8.28
2019-01-15T13:11:57.093Z,8.27
2019-01-15T13:14:42.024Z,8.25
2019-01-15T13:17:27.301Z,8.25
2019-01-15T13:19:57.437Z,8.24
2019-01-15T13:22:28.452Z,8.22
2019-01-15T13:25:16.659Z,8.17
2019-01-15T13:27:49.411Z,8.13
2019-01-15T13:30:19.646Z,8.14
2019-01-15T13:32:55.773Z,8.13
2019-01-15T13:35:31.922Z,8.14
2019-01-15T13:38:01.986Z,8.10
2019-01-15T13:40:35.094Z,8.12
2019-01-15T13:43:23.707Z,8.16
2019-01-15T13:46:00.705Z,8.14
2019-01-15T13:48:28.801Z,8.16
2019-01-15T13:51:07.880Z,8.16
2019-01-15T13:53:41.332Z,8.18
2019-01-15T13:56:27.683Z,8.18
2019-01-15T13:59:03.671Z,8.17
2019-01-15T14:01:48.915Z,8.18
2019-01-15T14:04:27.714Z,8.16
2019-01-15T14:07:14.520Z,8.15
2019-01-15T14:09:59.749Z,8.13
2019-01-15T14:12:41.608Z,8.12
2019-01-15T14:15:11.992Z,8.11
2019-01-15T14:17:44.568Z,8.12
2019-01-15T14:20:31.324Z,8.11
2019-01-15T14:23:16.377Z,8.10
2019-01-15T14:25:49.214Z,8.09
2019-01-15T14:28:31.297Z,8.08
2019-01-15T14:31:01.443Z,8.07
2019-01-15T14:33:34.567Z,8.07
2019-01-15T14:36:16.646Z,8.07
2019-01-15T14:38:46.863Z,8.10
2019-01-15T14:41:16.922Z,8.08
2019-01-15T14:43:53.123Z,8.08
2019-01-15T14:46:39.741Z,8.06
2019-01-15T14:49:12.932Z,8.05
2019-01-15T14:51:59.799Z,8.05
2019-01-15T14:54:38.848Z,8.06
2019-01-15T14:57:17.992Z,8.03
2019-01-15T14:59:48.098Z,8.04
2019-01-15T15:02:33.518Z,8.02
2019-01-15T15:05:19.936Z,8.00
2019-01-15T15:07:59.007Z,7.97
2019-01-15T15:10:29.087Z,7.95
2019-01-15T15:12:59.241Z,7.95
2019-01-15T15:15:29.494Z,7.94
2019-01-15T15:18:11.629Z,7.94
2019-01-15T15:20:51.049Z,7.92
2019-01-15T15:23:21.189Z,7.95
2019-01-15T15:26:00.022Z,7.95
2019-01-15T15:28:36.098Z,7.95
2019-01-15T15:31:10.951Z,7.95
2019-01-15T15:33:45.263Z,7.93
2019-01-15T15:36:30.681Z,7.93
2019-01-15T15:39:15.735Z,7.92
2019-01-15T15:41:45.811Z,7.91
2019-01-15T15:44:31.293Z,7.91
2019-01-15T15:47:17.805Z,7.90
2019-01-15T15:50:03.945Z,7.90
2019-01-15T15:52:46.585Z,7.90
2019-01-15T15:55:35.032Z,7.89
2019-01-15T15:58:14.664Z,7.88
2019-01-15T16:00:47.556Z,7.86
2019-01-15T16:03:36.193Z,7.86
2019-01-15T16:06:09.727Z,7.86
2019-01-15T16:08:39.929Z,7.86
2019-01-15T16:11:15.726Z,7.84
2019-01-15T16:13:54.979Z,7.86
2019-01-15T16:16:40.072Z,7.83
2019-01-15T16:19:10.164Z,7.83
2019-01-15T16:21:46.169Z,7.82
2019-01-15T16:24:32.984Z,7.82
2019-01-15T16:27:18.168Z,7.81
2019-01-15T16:29:48.310Z,7.79
2019-01-15T16:32:18.365Z,7.79
2019-01-15T16:34:51.321Z,7.81
2019-01-15T16:37:27.399Z,7.81
2019-01-15T16:40:09.277Z,7.80
2019-01-15T16:42:48.391Z,7.80
2019-01-15T16:45:30.778Z,7.81
2019-01-15T16:48:12.638Z,7.81
2019-01-15T16:50:49.149Z,7.79
2019-01-15T16:53:22.163Z,7.77
2019-01-15T16:55:58.680Z,7.78
2019-01-15T16:58:34.104Z,7.79
2019-01-15T17:01:20.667Z,7.79
2019-01-15T17:03:50.881Z,7.81
2019-01-15T17:06:27.075Z,7.81
2019-01-15T17:09:03.242Z,7.80
2019-01-15T17:11:51.217Z,7.80
2019-01-15T17:14:24.421Z,7.79
2019-01-15T17:16:54.465Z,7.81
2019-01-15T17:19:27.249Z,7.82
2019-01-15T17:22:13.484Z,7.81
2019-01-15T17:24:49.406Z,7.80
2019-01-15T17:27:19.581Z,7.81
2019-01-15T17:30:08.052Z,7.81
2019-01-15T17:32:38.150Z,7.81
2019-01-15T17:35:11.617Z,7.81
2019-01-15T17:37:50.723Z,7.81
2019-01-15T17:40:37.046Z,7.80
2019-01-15T17:43:13.412Z,7.82
2019-01-15T17:45:46.473Z,7.82
2019-01-15T17:48:17.389Z,7.84
2019-01-15T17:51:03.718Z,7.83
2019-01-15T17:53:39.622Z,7.83
2019-01-15T17:56:12.851Z,7.83
2019-01-15T17:58:55.168Z,7.81
2019-01-15T18:01:37.562Z,7.82
2019-01-15T18:04:23.529Z,7.81
2019-01-15T18:07:10.011Z,7.82
2019-01-15T18:09:40.123Z,7.84
2019-01-15T18:12:19.002Z,7.82
2019-01-15T18:14:49.167Z,7.82
2019-01-15T18:17:19.572Z,7.82
2019-01-15T18:20:04.640Z,7.83
2019-01-15T18:22:34.775Z,7.84
2019-01-15T18:25:07.904Z,7.82
2019-01-15T18:27:49.669Z,7.83
2019-01-15T18:30:35.906Z,7.85
2019-01-15T18:33:23.513Z,7.85
2019-01-15T18:35:56.656Z,7.85
2019-01-15T18:38:26.872Z,7.83
2019-01-15T18:41:02.812Z,7.83
2019-01-15T18:43:50.883Z,7.81
2019-01-15T18:46:24.147Z,7.81
2019-01-15T18:48:57.741Z,7.80
2019-01-15T18:51:27.906Z,7.79
2019-01-15T18:54:14.249Z,7.78
2019-01-15T18:56:47.201Z,7.78
2019-01-15T18:59:33.699Z,7.76
2019-01-15T19:02:20.159Z,7.78
2019-01-15T19:04:50.280Z,7.78
2019-01-15T19:07:23.137Z,7.77
2019-01-15T19:10:09.709Z,7.76
2019-01-15T19:12:46.032Z,7.74
2019-01-15T19:15:25.668Z,7.73
2019-01-15T19:18:12.047Z,7.70
2019-01-15T19:20:58.624Z,7.71
2019-01-15T19:23:28.874Z,7.71
2019-01-15T19:26:17.497Z,7.70
2019-01-15T19:29:04.092Z,7.70
2019-01-15T19:31:49.023Z,7.72
2019-01-15T19:34:37.459Z,7.70
2019-01-15T19:37:19.872Z,7.73
2019-01-15T19:39:53.071Z,7.72
2019-01-15T19:42:23.138Z,7.71
2019-01-15T19:44:53.414Z,7.71
2019-01-15T19:47:38.329Z,7.72
2019-01-15T19:50:23.078Z,7.72
2019-01-15T19:53:09.734Z,7.73
2019-01-15T19:55:39.943Z,7.74
2019-01-15T19:58:10.309Z,7.74
2019-01-15T20:00:46.306Z,7.77
2019-01-15T20:03:32.665Z,7.78
2019-01-15T20:06:03.603Z,7.79
2019-01-15T20:08:39.529Z,7.75
2019-01-15T20:11:26.069Z,7.77
2019-01-15T20:13:59.372Z,7.77
2019-01-15T20:16:29.511Z,7.74
2019-01-15T20:19:02.446Z,7.71
2019-01-15T20:21:53.137Z,7.71
2019-01-15T20:24:28.699Z,7.72
2019-01-15T20:27:01.456Z,7.72
2019-01-15T20:29:40.330Z,7.75
2019-01-15T20:32:16.626Z,7.75
2019-01-15T20:34:55.435Z,7.77
2019-01-15T20:37:28.625Z,7.79
2019-01-15T20:40:07.670Z,7.78
2019-01-15T20:42:37.893Z,7.76
2019-01-15T20:45:15.560Z,7.74
2019-01-15T20:48:03.678Z,7.75
2019-01-15T20:50:40.115Z,7.75
2019-01-15T20:53:10.286Z,7.75
2019-01-15T20:55:56.926Z,7.77
2019-01-15T20:58:35.867Z,7.78
2019-01-15T21:01:08.840Z,7.79
2019-01-15T21:03:44.969Z,7.79
2019-01-15T21:06:18.214Z,7.80
2019-01-15T21:08:57.689Z,7.80
2019-01-15T21:11:44.239Z,7.80
2019-01-15T21:14:20.479Z,7.79
2019-01-15T21:17:07.093Z,7.81
2019-01-15T21:19:37.210Z,7.83
2019-01-15T21:22:25.516Z,7.82
2019-01-15T21:25:01.954Z,7.83
2019-01-15T21:27:44.351Z,7.83
2019-01-15T21:30:21.404Z,7.82
2019-01-15T21:33:03.910Z,7.79
2019-01-15T21:35:37.016Z,7.79
2019-01-15T21:38:22.415Z,7.78
2019-01-15T21:40:58.612Z,7.78
2019-01-15T21:43:28.805Z,7.77
2019-01-15T21:46:04.961Z,7.75
2019-01-15T21:48:51.572Z,7.76
2019-01-15T21:51:27.829Z,7.74
2019-01-15T21:54:07.206Z,7.74
2019-01-15T21:56:53.525Z,7.75
2019-01-15T21:59:32.666Z,7.78
2019-01-15T22:02:20.758Z,7.77
2019-01-15T22:05:02.476Z,7.77
2019-01-15T22:07:41.548Z,7.75
2019-01-15T22:10:14.584Z,7.75
2019-01-15T22:12:53.624Z,7.74
2019-01-15T22:15:23.827Z,7.73
2019-01-15T22:17:54.075Z,7.72
2019-01-15T22:20:39.561Z,7.70
2019-01-15T22:23:12.706Z,7.71
2019-01-15T22:25:59.187Z,7.71
2019-01-15T22:28:34.986Z,7.71
2019-01-15T22:31:08.085Z,7.73
2019-01-15T22:33:43.913Z,7.72
2019-01-15T22:36:19.851Z,7.71
2019-01-15T22:38:50.026Z,7.70
2019-01-15T22:41:32.015Z,7.72
2019-01-15T22:44:10.831Z,7.71
2019-01-15T22:46:57.387Z,7.71
2019-01-15T22:49:30.506Z,7.69
2019-01-15T22:52:16.815Z,7.69
2019-01-15T22:54:46.909Z,7.69
2019-01-15T22:57:26.059Z,7.71
2019-01-15T23:00:12.379Z,7.69
2019-01-15T23:02:45.478Z,7.69
2019-01-15T23:05:24.241Z,7.69
2019-01-15T23:07:54.430Z,7.67
2019-01-15T23:10:33.873Z,7.68
2019-01-15T23:13:09.804Z,7.70
2019-01-15T23:15:39.862Z,7.70
2019-01-15T23:18:10.111Z,7.71
2019-01-15T23:20:43.110Z,7.71
2019-01-15T23:23:21.902Z,7.71
2019-01-15T23:25:54.896Z,7.72
2019-01-15T23:28:28.124Z,7.72
2019-01-15T23:31:15.064Z,7.71
2019-01-15T23:33:57.304Z,7.70
2019-01-15T23:36:30.589Z,7.68
2019-01-15T23:39:00.761Z,7.66
2019-01-15T23:41:37.362Z,7.66
2019-01-15T23:44:23.780Z,7.63
2019-01-15T23:46:59.622Z,7.60
2019-01-15T23:49:38.952Z,7.58
2019-01-15T23:52:25.762Z,7.56
2019-01-15T23:55:08.090Z,7.54
2019-01-15T23:57:47.179Z,7.56
